Time;durP1;ratioP1;P1;durP2;ratioP2;P2;SDS_P1;SDS_P2;PMS_P1;PMS_P2;Temp;Humidity;BMP_temperature;BMP_pressure;BME280_temperature;BME280_humidity;BME280_pressure;Samples;Min_cycle;Max_cycle;Signal;HPM_P1;HPM_P2
2022/01/06 00:00:09;;;;;;;7.00;2.73;;;;;;;3.84;93.84;99773.38;4991969;28;20214;-57
2022/01/06 00:02:35;;;;;;;5.23;2.57;;;;;;;3.74;93.82;99770.28;5025890;28;20257;-57
2022/01/06 00:05:01;;;;;;;3.97;2.10;;;;;;;3.77;94.71;99776.97;5010699;28;20255;-58
2022/01/06 00:07:27;;;;;;;4.70;2.47;;;;;;;3.87;94.71;99786.00;5011308;28;20213;-58
2022/01/06 00:09:53;;;;;;;6.40;2.63;;;;;;;3.93;94.44;99790.06;5011299;28;20270;-57
2022/01/06 00:12:21;;;;;;;5.17;2.30;;;;;;;4.00;94.29;99786.44;5016542;28;20309;-57
2022/01/06 00:15:03;;;;;;;5.27;2.67;;;;;;;3.86;94.39;99785.16;5010867;28;20618;-58
2022/01/06 00:17:46;;;;;;;3.40;2.10;;;;;;;3.83;94.47;99792.91;5009222;28;20229;-57
2022/01/06 00:23:24;;;;;;;4.63;2.37;;;;;;;3.60;95.36;99796.16;5042705;28;20285;-58
2022/01/06 00:25:50;;;;;;;2.83;2.40;;;;;;;3.55;96.35;99795.47;5030858;28;20254;-57
2022/01/06 00:28:16;;;;;;;6.43;2.23;;;;;;;3.37;97.00;99787.53;5030935;28;20181;-57
2022/01/06 00:30:42;;;;;;;4.93;2.20;;;;;;;3.17;98.76;99800.78;5005331;28;20284;-57
2022/01/06 00:33:08;;;;;;;3.33;2.00;;;;;;;3.03;99.88;99793.56;5040776;28;20182;-58
2022/01/06 00:35:33;;;;;;;4.10;2.07;;;;;;;3.01;100.00;99794.50;5030321;28;20198;-58
2022/01/06 00:37:59;;;;;;;5.03;2.53;;;;;;;3.08;100.00;99798.53;5030841;28;20235;-57
2022/01/06 00:40:24;;;;;;;4.50;2.13;;;;;;;2.99;100.00;99814.88;5020557;28;20239;-57
2022/01/06 00:42:49;;;;;;;6.70;2.10;;;;;;;3.13;100.00;99808.56;5029650;28;20248;-57
2022/01/06 00:45:15;;;;;;;3.50;2.27;;;;;;;3.13;100.00;99808.56;5030557;28;20170;-57
2022/01/06 00:47:40;;;;;;;3.77;2.10;;;;;;;3.25;100.00;99810.75;5018776;28;20205;-57
2022/01/06 00:50:06;;;;;;;2.77;1.83;;;;;;;3.27;100.00;99814.06;5008657;28;20205;-58
2022/01/06 00:52:33;;;;;;;3.70;1.97;;;;;;;3.28;100.00;99810.66;5036941;28;20567;-58
2022/01/06 00:54:58;;;;;;;5.03;2.33;;;;;;;3.36;100.00;99806.19;5030333;28;20181;-58
2022/01/06 00:57:23;;;;;;;2.87;1.90;;;;;;;3.19;100.00;99816.84;5030473;28;20322;-58
2022/01/06 00:59:48;;;;;;;4.13;1.87;;;;;;;3.15;100.00;99810.19;5029292;28;20246;-58
2022/01/06 01:02:14;;;;;;;3.80;1.87;;;;;;;3.03;100.00;99815.63;5035603;28;20228;-58
2022/01/06 01:04:40;;;;;;;3.60;2.10;;;;;;;2.94;100.00;99818.41;5030318;28;20265;-58
2022/01/06 01:07:05;;;;;;;6.00;2.20;;;;;;;2.80;100.00;99811.97;5030626;28;20178;-57
2022/01/06 01:09:31;;;;;;;3.93;2.07;;;;;;;2.84;100.00;99818.66;5030275;28;20619;-58
2022/01/06 01:12:01;;;;;;;3.17;1.93;;;;;;;2.85;100.00;99819.47;5034535;28;20701;-58
2022/01/06 01:14:29;;;;;;;3.13;1.97;;;;;;;2.93;100.00;99807.41;5030300;28;20184;-58
2022/01/06 01:17:00;;;;;;;6.37;2.13;;;;;;;2.77;100.00;99814.63;5030142;28;20196;-58
2022/01/06 01:19:27;;;;;;;3.43;1.93;;;;;;;2.79;100.00;99825.56;5034283;28;20232;-57
2022/01/06 01:21:53;;;;;;;2.17;1.73;;;;;;;2.76;100.00;99829.91;5035654;28;20318;-57
2022/01/06 01:24:19;;;;;;;3.97;2.27;;;;;;;2.68;100.00;99841.09;5021879;28;20276;-58
2022/01/06 01:26:45;;;;;;;5.10;2.30;;;;;;;2.72;100.00;99846.94;5025505;28;20261;-58
2022/01/06 01:29:17;;;;;;;5.47;2.00;;;;;;;2.71;100.00;99858.78;5033846;28;20189;-57
2022/01/06 01:31:47;;;;;;;4.60;2.00;;;;;;;2.52;100.00;99850.00;5036709;28;20258;-58
2022/01/06 01:34:13;;;;;;;3.17;2.27;;;;;;;2.50;100.00;99859.34;5035443;28;20213;-57
2022/01/06 01:36:39;;;;;;;3.20;2.37;;;;;;;2.41;100.00;99857.88;5033570;28;20694;-56
2022/01/06 01:39:06;;;;;;;5.70;2.40;;;;;;;2.50;100.00;99869.50;5033556;28;20208;-56
2022/01/06 01:41:32;;;;;;;4.30;2.73;;;;;;;2.58;100.00;99870.16;5023081;28;20258;-56
2022/01/06 01:43:57;;;;;;;5.87;3.00;;;;;;;2.38;100.00;99878.22;5032957;28;20261;-57
2022/01/06 01:46:30;;;;;;;6.10;2.93;;;;;;;2.37;100.00;99882.50;5033405;28;20182;-57
2022/01/06 01:51:53;;;;;;;4.93;2.33;;;;;;;2.74;100.00;99883.25;5020751;28;20254;-56
2022/01/06 01:54:18;;;;;;;4.60;2.37;;;;;;;2.73;100.00;99884.16;5030342;28;20180;-56
2022/01/06 01:56:44;;;;;;;4.40;1.90;;;;;;;2.88;100.00;99888.84;5030862;28;20250;-56
2022/01/06 01:59:11;;;;;;;11.33;2.67;;;;;;;2.80;100.00;99888.19;5031435;28;20249;-57
2022/01/06 02:01:36;;;;;;;4.90;2.33;;;;;;;2.84;100.00;99882.16;5028532;28;20322;-57
2022/01/06 02:04:02;;;;;;;7.17;2.23;;;;;;;2.95;100.00;99884.41;5023062;28;20671;-57
2022/01/06 02:06:27;;;;;;;6.77;2.20;;;;;;;2.92;100.00;99884.50;5011048;28;20182;-57
2022/01/06 02:08:54;;;;;;;7.13;2.53;;;;;;;3.10;100.00;99882.34;5010787;28;20197;-57
2022/01/06 02:11:20;;;;;;;3.97;2.37;;;;;;;3.15;100.00;99880.50;5001170;28;20291;-57
2022/01/06 02:13:47;;;;;;;4.07;2.03;;;;;;;3.23;100.00;99878.59;5013748;28;20185;-56
2022/01/06 02:16:12;;;;;;;4.07;1.90;;;;;;;3.21;100.00;99893.91;5043298;28;20245;-56
2022/01/06 02:18:37;;;;;;;5.43;2.53;;;;;;;3.21;100.00;99896.44;5049333;28;20283;-57
2022/01/06 02:21:02;;;;;;;4.37;2.00;;;;;;;3.23;100.00;99896.38;5040291;28;20232;-57
2022/01/06 02:23:28;;;;;;;5.13;2.37;;;;;;;3.21;99.80;99896.44;5050320;28;20180;-56
2022/01/06 02:25:53;;;;;;;6.97;2.20;;;;;;;3.12;99.64;99886.50;5050505;28;20191;-57
2022/01/06 02:28:22;;;;;;;7.90;2.27;;;;;;;3.10;99.94;99890.81;5041106;28;20197;-57
2022/01/06 02:30:50;;;;;;;4.03;1.97;;;;;;;3.02;99.89;99891.00;5022191;28;20229;-57
2022/01/06 02:33:16;;;;;;;4.30;1.97;;;;;;;2.72;100.00;99895.19;5032072;28;20253;-57
2022/01/06 02:35:41;;;;;;;6.90;2.07;;;;;;;2.65;100.00;99896.22;5032254;28;20302;-57
2022/01/06 02:38:09;;;;;;;5.90;1.87;;;;;;;2.55;100.00;99906.59;5032402;28;20181;-57
2022/01/06 02:40:34;;;;;;;10.47;2.50;;;;;;;2.45;100.00;99909.41;5026832;28;20258;-56
2022/01/06 02:43:01;;;;;;;9.37;2.30;;;;;;;2.40;100.00;99912.03;5043894;28;20480;-57
2022/01/06 02:45:29;;;;;;;5.50;2.83;;;;;;;2.48;100.00;99912.72;5032456;28;20180;-58
2022/01/06 02:47:56;;;;;;;7.83;2.17;;;;;;;2.41;100.00;99921.34;5019571;28;20212;-57
2022/01/06 02:50:23;;;;;;;10.43;2.63;;;;;;;2.44;100.00;99930.59;5002611;28;20242;-57
2022/01/06 02:52:49;;;;;;;10.30;2.53;;;;;;;2.35;100.00;99926.56;5005428;28;20264;-56
2022/01/06 02:55:15;;;;;;;8.07;2.40;;;;;;;2.46;100.00;99929.66;4992613;28;20300;-57
2022/01/06 02:57:43;;;;;;;8.33;2.27;;;;;;;2.40;100.00;99933.19;4985457;28;20190;-57
2022/01/06 03:00:18;;;;;;;6.27;1.87;;;;;;;2.21;100.00;99927.69;4980540;28;20296;-56
2022/01/06 03:02:46;;;;;;;4.87;1.87;;;;;;;2.17;100.00;99928.66;5001501;28;20186;-57
2022/01/06 03:05:12;;;;;;;8.47;2.03;;;;;;;2.08;100.00;99939.84;4992427;28;20170;-57
2022/01/06 03:07:39;;;;;;;10.70;2.40;;;;;;;2.22;100.00;99931.06;4992762;28;20175;-57
2022/01/06 03:10:08;;;;;;;12.37;3.03;;;;;;;2.14;100.00;99938.03;4983252;28;20261;-57
2022/01/06 03:12:39;;;;;;;9.53;2.77;;;;;;;2.21;100.00;99940.41;5007684;28;20595;-57
2022/01/06 03:15:07;;;;;;;8.33;2.27;;;;;;;2.08;100.00;99939.00;4992423;28;20206;-57
2022/01/06 03:17:32;;;;;;;12.57;2.57;;;;;;;1.99;100.00;99944.28;4992800;28;20229;-57
2022/01/06 03:19:58;;;;;;;9.90;2.97;;;;;;;2.03;100.00;99946.69;4992571;28;20289;-56
2022/01/06 03:22:23;;;;;;;11.37;2.23;;;;;;;1.94;100.00;99949.44;4997852;28;20416;-57
2022/01/06 03:24:48;;;;;;;5.87;1.90;;;;;;;1.98;100.00;99953.56;4992180;28;20192;-57
2022/01/06 03:27:14;;;;;;;10.10;2.67;;;;;;;1.98;100.00;99948.50;4992439;28;20595;-57
2022/01/06 03:29:39;;;;;;;6.73;2.17;;;;;;;2.04;100.00;99952.63;4992340;28;20750;-56
2022/01/06 03:32:05;;;;;;;11.07;2.37;;;;;;;2.02;100.00;99955.19;4997702;28;20366;-56
2022/01/06 03:34:31;;;;;;;8.10;2.97;;;;;;;1.96;100.00;99959.56;4992050;28;20598;-57
2022/01/06 03:36:58;;;;;;;6.00;2.40;;;;;;;1.89;100.00;99967.28;4996856;28;20242;-57
2022/01/06 03:39:24;;;;;;;6.27;2.23;;;;;;;1.78;100.00;99964.97;5011709;28;20212;-57
2022/01/06 03:41:49;;;;;;;9.53;2.47;;;;;;;1.70;100.00;99968.53;5014936;28;20231;-57
2022/01/06 03:44:15;;;;;;;9.70;2.90;;;;;;;1.67;100.00;99979.56;5026586;28;20205;-57
2022/01/06 03:46:40;;;;;;;8.30;2.70;;;;;;;1.61;100.00;99980.53;5011610;28;20167;-57
2022/01/06 03:49:05;;;;;;;8.53;2.97;;;;;;;1.62;100.00;99986.44;5011649;28;20227;-56
2022/01/06 03:51:31;;;;;;;8.17;2.90;;;;;;;1.71;100.00;99983.75;5012978;28;20238;-56
2022/01/06 03:53:56;;;;;;;9.00;3.03;;;;;;;1.77;100.00;99980.22;5015188;28;20224;-56
2022/01/06 03:56:22;;;;;;;10.67;3.03;;;;;;;1.80;100.00;99982.72;5011282;28;20580;-57
2022/01/06 03:58:48;;;;;;;7.57;2.73;;;;;;;1.70;100.00;99991.34;5011266;28;20191;-56
2022/01/06 04:01:14;;;;;;;11.43;3.13;;;;;;;1.65;100.00;99993.16;5000512;28;20262;-57
2022/01/06 04:03:40;;;;;;;13.53;2.93;;;;;;;1.66;100.00;99999.91;5017401;28;20254;-57
2022/01/06 04:06:05;;;;;;;11.00;2.87;;;;;;;1.72;100.00;100003.13;4989003;28;20188;-57
2022/01/06 04:08:31;;;;;;;11.27;2.93;;;;;;;1.71;100.00;99998.97;4991544;28;20268;-56
2022/01/06 04:10:56;;;;;;;8.13;2.80;;;;;;;1.92;100.00;100001.91;4997136;28;20226;-56
2022/01/06 04:13:22;;;;;;;15.33;3.07;;;;;;;1.88;100.00;100006.19;5030065;28;20261;-57
2022/01/06 04:15:48;;;;;;;12.67;3.53;;;;;;;1.89;100.00;100005.34;5018146;28;20272;-56
2022/01/06 04:18:13;;;;;;;11.33;3.03;;;;;;;2.04;100.00;100013.53;5028389;28;20267;-56
2022/01/06 04:20:38;;;;;;;13.30;3.27;;;;;;;2.09;100.00;100011.72;5011100;28;20236;-57
2022/01/06 04:23:04;;;;;;;8.67;2.90;;;;;;;2.14;100.00;100014.16;5029931;28;20181;-57
2022/01/06 04:25:29;;;;;;;10.70;2.53;;;;;;;2.16;100.00;100025.94;5030441;28;20167;-57
2022/01/06 04:27:54;;;;;;;10.30;3.07;;;;;;;2.11;100.00;100017.59;5030713;28;20203;-57
2022/01/06 04:30:19;;;;;;;9.13;3.07;;;;;;;2.05;100.00;100023.63;5002458;28;20192;-57
2022/01/06 04:32:45;;;;;;;13.57;2.93;;;;;;;2.04;100.00;100029.56;5043671;28;20203;-57
2022/01/06 04:35:11;;;;;;;9.07;2.50;;;;;;;2.04;100.00;100029.56;5019748;28;20216;-57
2022/01/06 04:37:36;;;;;;;14.23;3.27;;;;;;;2.02;100.00;100038.94;5013172;28;20189;-57
2022/01/06 04:40:03;;;;;;;14.97;2.60;;;;;;;2.05;100.00;100041.38;5019119;28;20204;-57
2022/01/06 04:42:29;;;;;;;13.63;2.83;;;;;;;2.12;100.00;100043.81;5037172;28;20203;-57
2022/01/06 04:44:54;;;;;;;11.97;2.93;;;;;;;2.12;100.00;100041.25;5030421;28;20195;-57
2022/01/06 04:47:19;;;;;;;9.67;3.33;;;;;;;2.13;100.00;100045.47;5030535;28;20645;-57
2022/01/06 04:49:44;;;;;;;9.77;2.63;;;;;;;2.10;100.00;100046.38;5030512;28;20208;-57
2022/01/06 04:52:10;;;;;;;9.07;2.93;;;;;;;2.05;100.00;100046.47;5021586;28;20720;-57
2022/01/06 04:54:35;;;;;;;12.23;2.70;;;;;;;2.07;100.00;100051.50;5034460;28;20176;-57
2022/01/06 04:57:00;;;;;;;9.43;3.07;;;;;;;2.09;100.00;100049.78;5034478;28;20545;-57
2022/01/06 04:59:26;;;;;;;14.10;3.47;;;;;;;2.20;100.00;100058.00;5034720;28;20301;-57
2022/01/06 05:01:51;;;;;;;15.57;3.37;;;;;;;2.12;100.00;100057.31;5023404;28;20258;-58
2022/01/06 05:04:16;;;;;;;13.57;2.93;;;;;;;2.16;100.00;100066.56;5033997;28;20184;-57
2022/01/06 05:06:42;;;;;;;9.60;3.03;;;;;;;2.06;100.00;100062.50;5034388;28;20507;-58
2022/01/06 05:09:07;;;;;;;18.20;3.50;;;;;;;2.09;100.00;100053.13;5034315;28;20574;-57
2022/01/06 05:11:32;;;;;;;7.43;3.23;;;;;;;2.17;100.00;100055.53;5023348;28;20567;-58
2022/01/06 05:13:58;;;;;;;9.67;3.13;;;;;;;1.96;100.00;100061.88;5033757;28;20177;-58
2022/01/06 05:16:23;;;;;;;9.30;2.80;;;;;;;2.05;100.00;100061.69;5034086;28;20204;-58
2022/01/06 05:18:49;;;;;;;14.87;3.73;;;;;;;2.03;100.00;100070.19;5034071;28;20268;-58
2022/01/06 05:21:14;;;;;;;10.93;2.87;;;;;;;1.94;100.00;100063.59;5023425;28;20235;-58
2022/01/06 05:23:41;;;;;;;10.37;3.00;;;;;;;1.79;100.00;100062.19;5033260;28;20548;-58
2022/01/06 05:26:08;;;;;;;15.37;3.53;;;;;;;1.78;100.00;100063.88;5034055;28;20176;-58
2022/01/06 05:28:33;;;;;;;12.87;2.77;;;;;;;1.76;100.00;100055.50;5034179;28;20230;-58
2022/01/06 05:30:59;;;;;;;18.83;4.33;;;;;;;1.76;100.00;100060.56;5023563;28;20268;-58
2022/01/06 05:33:26;;;;;;;11.00;3.23;;;;;;;1.68;100.00;100064.09;5033275;28;20184;-56
2022/01/06 05:35:51;;;;;;;14.97;4.87;;;;;;;1.54;100.00;100065.19;5032153;28;20213;-56
2022/01/06 05:38:17;;;;;;;12.93;4.77;;;;;;;1.50;100.00;100072.88;5018072;28;20262;-56
2022/01/06 05:40:42;;;;;;;14.77;4.50;;;;;;;1.47;100.00;100075.47;5009020;28;20860;-56
2022/01/06 05:43:08;;;;;;;12.10;2.97;;;;;;;1.45;100.00;100085.63;5023961;28;20178;-56
2022/01/06 05:45:33;;;;;;;10.10;2.73;;;;;;;1.39;100.00;100090.78;5013585;28;20227;-57
2022/01/06 05:47:58;;;;;;;8.77;3.23;;;;;;;1.58;100.00;100096.41;5020340;28;20183;-56
2022/01/06 05:50:24;;;;;;;15.70;3.50;;;;;;;1.47;100.00;100100.81;5006132;28;20772;-56
2022/01/06 05:52:54;;;;;;;15.93;3.30;;;;;;;1.51;100.00;100102.44;5018242;28;20202;-56
2022/01/06 05:55:19;;;;;;;9.43;3.07;;;;;;;1.63;100.00;100106.47;5013242;28;20708;-57
2022/01/06 05:57:44;;;;;;;14.87;3.50;;;;;;;1.66;100.00;100114.00;5013688;28;20213;-57
2022/01/06 06:00:10;;;;;;;13.83;3.40;;;;;;;1.59;100.00;100111.56;5004407;28;20197;-57
2022/01/06 06:02:36;;;;;;;14.60;3.63;;;;;;;1.59;100.00;100113.28;5027532;28;20202;-57
2022/01/06 06:05:01;;;;;;;16.57;3.50;;;;;;;1.67;100.00;100113.97;5011432;28;20181;-57
2022/01/06 06:07:26;;;;;;;13.03;3.20;;;;;;;1.58;100.00;100121.75;5013643;28;20204;-57
2022/01/06 06:10:08;;;;;;;12.77;3.40;;;;;;;1.54;100.00;100123.50;5013386;28;20203;-57
2022/01/06 06:12:33;;;;;;;18.47;3.70;;;;;;;1.60;100.00;100123.41;5001982;28;20219;-56
2022/01/06 06:14:58;;;;;;;16.13;3.43;;;;;;;1.68;100.00;100123.25;5012980;28;20865;-57
2022/01/06 06:17:23;;;;;;;16.70;4.03;;;;;;;1.79;100.00;100125.59;5013291;28;20179;-57
2022/01/06 06:19:49;;;;;;;12.00;3.27;;;;;;;1.68;100.00;100128.31;5013275;28;20219;-57
2022/01/06 06:22:14;;;;;;;11.03;3.10;;;;;;;1.74;100.00;100122.31;5018407;28;20652;-57
2022/01/06 06:24:39;;;;;;;12.03;4.23;;;;;;;1.72;100.00;100127.41;5011773;28;20183;-56
2022/01/06 06:27:06;;;;;;;7.57;3.20;;;;;;;1.65;100.00;100130.94;5013275;28;20167;-57
2022/01/06 06:29:32;;;;;;;12.47;3.23;;;;;;;1.68;100.00;100127.50;5013377;28;20189;-57
2022/01/06 06:31:57;;;;;;;23.40;5.27;;;;;;;1.84;100.00;100136.50;5018099;28;20601;-57
2022/01/06 06:34:22;;;;;;;12.30;3.93;;;;;;;1.88;100.00;100142.38;5013494;28;20272;-57
2022/01/06 06:36:48;;;;;;;10.10;3.00;;;;;;;1.80;100.00;100144.19;5016471;28;20195;-57
2022/01/06 06:39:13;;;;;;;8.60;3.37;;;;;;;1.85;100.00;100147.47;5032717;28;20269;-57
2022/01/06 06:41:39;;;;;;;15.73;3.50;;;;;;;1.92;100.00;100146.50;5021658;28;20254;-57
2022/01/06 06:44:05;;;;;;;13.80;4.30;;;;;;;1.94;100.00;100152.41;5031036;28;20229;-57
2022/01/06 06:46:30;;;;;;;12.93;4.27;;;;;;;2.04;100.00;100153.91;5010628;28;20186;-57
2022/01/06 06:48:55;;;;;;;14.50;4.70;;;;;;;2.11;100.00;100157.16;5012230;28;20624;-58
2022/01/06 06:51:21;;;;;;;16.47;3.97;;;;;;;2.18;100.00;100158.72;5011991;28;20218;-58
2022/01/06 06:53:46;;;;;;;12.37;3.37;;;;;;;2.19;100.00;100162.91;5017654;28;20182;-57
2022/01/06 06:56:11;;;;;;;11.17;3.87;;;;;;;2.29;100.00;100163.59;5012457;28;20576;-57
2022/01/06 06:58:37;;;;;;;18.37;3.87;;;;;;;2.22;100.00;100160.34;5009040;28;20268;-58
2022/01/06 07:01:02;;;;;;;13.50;3.40;;;;;;;2.24;100.00;100166.19;5003977;28;20235;-58
2022/01/06 07:03:28;;;;;;;11.13;3.43;;;;;;;2.26;99.69;100168.72;5019881;28;20212;-57
2022/01/06 07:05:53;;;;;;;11.33;3.30;;;;;;;2.22;100.00;100177.25;5011908;28;20178;-57
2022/01/06 07:08:18;;;;;;;11.80;3.53;;;;;;;2.21;100.00;100181.50;5009414;28;20186;-57
2022/01/06 07:10:45;;;;;;;14.33;4.27;;;;;;;2.31;100.00;100182.16;4999425;28;20223;-57
2022/01/06 07:13:10;;;;;;;14.33;3.87;;;;;;;2.46;99.46;100193.72;5015961;28;20709;-56
2022/01/06 07:15:41;;;;;;;12.77;3.13;;;;;;;2.48;98.77;100192.00;5007715;28;20225;-57
2022/01/06 07:18:07;;;;;;;17.37;3.13;;;;;;;2.49;98.95;100190.28;5012364;28;20263;-58
2022/01/06 07:20:32;;;;;;;10.20;3.20;;;;;;;2.39;99.44;100197.25;5006094;28;20312;-59
2022/01/06 07:22:57;;;;;;;13.47;3.20;;;;;;;2.35;99.93;100199.00;5027424;28;20188;-56
2022/01/06 07:25:22;;;;;;;14.60;3.50;;;;;;;2.47;100.00;100210.66;5012068;28;20170;-57
2022/01/06 07:27:48;;;;;;;10.17;3.27;;;;;;;2.50;100.00;100214.81;5012342;28;20263;-57
2022/01/06 07:30:13;;;;;;;13.43;3.20;;;;;;;2.58;98.77;100213.81;5003520;28;20200;-57
2022/01/06 07:32:46;;;;;;;13.00;3.47;;;;;;;2.45;98.41;100209.81;5025903;28;20184;-57
2022/01/06 07:35:12;;;;;;;14.23;3.20;;;;;;;2.51;98.07;100222.41;5011762;28;20272;-57
2022/01/06 07:37:38;;;;;;;10.97;3.20;;;;;;;2.51;97.76;100227.47;5022316;28;20189;-57
2022/01/06 07:40:05;;;;;;;15.80;3.23;;;;;;;2.41;98.59;100231.06;5025359;28;20200;-57
2022/01/06 07:42:30;;;;;;;17.07;3.13;;;;;;;2.49;98.15;100230.91;5030491;28;20264;-58
2022/01/06 07:44:56;;;;;;;9.73;2.73;;;;;;;2.39;98.35;100232.78;5031436;28;20737;-57
2022/01/06 07:47:21;;;;;;;14.77;3.80;;;;;;;2.31;98.76;100238.03;5022926;28;20240;-57
2022/01/06 07:49:47;;;;;;;15.17;3.17;;;;;;;2.08;99.89;100251.97;5011631;28;20592;-58
2022/01/06 07:52:12;;;;;;;12.37;3.33;;;;;;;1.86;100.00;100253.16;5016836;28;20248;-57
2022/01/06 07:54:37;;;;;;;17.17;3.37;;;;;;;1.94;100.00;100252.16;5011320;28;20183;-57
2022/01/06 07:57:03;;;;;;;11.93;3.13;;;;;;;2.10;100.00;100264.63;5011578;28;20238;-57
2022/01/06 07:59:28;;;;;;;11.33;3.10;;;;;;;2.04;100.00;100264.72;5011679;28;20271;-57
2022/01/06 08:01:54;;;;;;;8.20;2.77;;;;;;;2.06;100.00;100268.03;4990164;28;20593;-58
2022/01/06 08:04:19;;;;;;;11.40;3.20;;;;;;;2.01;100.00;100274.91;5011206;28;20192;-58
2022/01/06 08:06:44;;;;;;;12.83;3.80;;;;;;;2.12;100.00;100275.56;5011561;28;20181;-58
2022/01/06 08:09:10;;;;;;;10.00;3.03;;;;;;;2.15;100.00;100272.97;5011581;28;20204;-57
2022/01/06 08:11:35;;;;;;;14.77;4.27;;;;;;;2.24;100.00;100279.59;5013335;28;20318;-57
2022/01/06 08:14:00;;;;;;;13.83;4.03;;;;;;;2.42;100.00;100284.34;5014750;28;20179;-57
2022/01/06 08:16:26;;;;;;;18.50;4.13;;;;;;;2.46;100.00;100294.47;5012011;28;20259;-56
2022/01/06 08:18:54;;;;;;;9.90;3.57;;;;;;;2.60;100.00;100286.59;5015858;28;20211;-57
2022/01/06 08:21:19;;;;;;;13.40;2.97;;;;;;;2.48;99.86;100295.25;5011110;28;20249;-57
2022/01/06 08:23:45;;;;;;;12.17;3.10;;;;;;;2.68;99.63;100302.50;5016600;28;20244;-57
2022/01/06 08:26:10;;;;;;;10.20;2.70;;;;;;;2.82;98.99;100308.19;5011285;28;20177;-57
2022/01/06 08:28:36;;;;;;;21.03;3.70;;;;;;;2.85;98.13;100315.75;5011489;28;20598;-57
2022/01/06 08:31:01;;;;;;;11.83;3.37;;;;;;;3.09;97.36;100317.81;4988578;28;20650;-57
2022/01/06 08:33:27;;;;;;;14.37;3.67;;;;;;;3.12;96.07;100326.22;5019011;28;20189;-57
2022/01/06 08:35:52;;;;;;;15.20;4.03;;;;;;;3.20;95.55;100334.56;5010936;28;20218;-57
2022/01/06 08:38:19;;;;;;;10.00;2.87;;;;;;;3.22;94.70;100332.81;5027215;28;20643;-57
2022/01/06 08:40:44;;;;;;;12.90;3.03;;;;;;;3.03;94.37;100327.25;5020314;28;20320;-57
2022/01/06 08:43:09;;;;;;;8.10;2.93;;;;;;;3.34;93.96;100339.34;5029882;28;20174;-57
2022/01/06 08:45:35;;;;;;;14.73;2.97;;;;;;;3.47;93.01;100337.38;5030421;28;20521;-57
2022/01/06 08:48:01;;;;;;;12.60;3.17;;;;;;;3.58;92.57;100333.78;5017152;28;20211;-57
2022/01/06 08:50:27;;;;;;;12.30;2.80;;;;;;;3.82;91.78;100340.00;5004066;28;20272;-57
2022/01/06 08:52:52;;;;;;;13.80;3.00;;;;;;;4.03;90.64;100336.13;5023113;28;20175;-57
2022/01/06 08:55:18;;;;;;;11.53;3.50;;;;;;;4.10;89.27;100341.94;5012708;28;20195;-57
2022/01/06 08:57:43;;;;;;;9.47;2.90;;;;;;;4.14;88.59;100343.53;5010466;28;20694;-57
2022/01/06 09:00:10;;;;;;;12.53;3.10;;;;;;;4.25;87.59;100340.72;4998683;28;20202;-57
2022/01/06 09:02:36;;;;;;;10.17;3.43;;;;;;;4.42;86.56;100341.13;5016537;28;20221;-57
2022/01/06 09:05:05;;;;;;;10.63;3.80;;;;;;;4.84;83.95;100338.34;5008397;28;20214;-57
2022/01/06 09:07:32;;;;;;;14.87;5.93;;;;;;;6.22;76.95;100338.59;5005459;28;20560;-57
2022/01/06 09:09:57;;;;;;;16.67;6.20;;;;;;;7.75;68.41;100340.81;5012340;28;20275;-58
2022/01/06 09:12:23;;;;;;;14.87;3.40;;;;;;;8.39;63.65;100337.41;5002228;28;20240;-58
2022/01/06 09:14:48;;;;;;;13.33;3.50;;;;;;;9.54;58.72;100337.59;5009559;28;20206;-57
2022/01/06 09:17:14;;;;;;;11.07;3.50;;;;;;;10.28;55.69;100336.63;5003706;28;20210;-58
2022/01/06 09:19:40;;;;;;;9.30;2.87;;;;;;;10.17;55.17;100333.72;5006251;28;20225;-57
2022/01/06 09:22:06;;;;;;;10.20;3.63;;;;;;;10.78;53.16;100337.56;5009680;28;20238;-58
2022/01/06 09:24:31;;;;;;;6.10;2.63;;;;;;;11.36;52.63;100340.56;5008044;28;20628;-58
2022/01/06 09:26:56;;;;;;;6.60;2.70;;;;;;;11.44;51.56;100342.72;4998012;28;20263;-57
2022/01/06 09:29:21;;;;;;;11.07;4.33;;;;;;;11.79;50.27;100348.53;4991120;28;20196;-56
2022/01/06 09:31:47;;;;;;;8.43;3.03;;;;;;;11.78;50.33;100352.00;4999744;28;20221;-58
2022/01/06 09:34:12;;;;;;;8.80;3.20;;;;;;;10.57;51.96;100351.53;5003826;28;20191;-58
2022/01/06 09:36:40;;;;;;;9.57;3.27;;;;;;;9.47;55.52;100360.13;5012558;28;20552;-58
2022/01/06 09:39:07;;;;;;;10.30;4.43;;;;;;;8.05;61.06;100363.56;5031832;28;20170;-58
2022/01/06 09:41:34;;;;;;;8.27;3.10;;;;;;;6.51;67.30;100364.91;5023118;28;20233;-58
2022/01/06 09:44:00;;;;;;;9.70;2.70;;;;;;;5.77;72.33;100363.78;5007490;28;20203;-58
2022/01/06 09:46:27;;;;;;;9.90;2.87;;;;;;;5.61;75.07;100375.34;5011341;28;20687;-57
2022/01/06 09:48:57;;;;;;;12.63;3.73;;;;;;;5.14;77.42;100374.06;5005958;28;20175;-57
2022/01/06 09:51:23;;;;;;;12.37;3.17;;;;;;;4.89;79.90;100368.81;5014142;28;20303;-57
2022/01/06 09:53:52;;;;;;;9.03;3.83;;;;;;;4.73;80.08;100370.94;5018395;28;20189;-57
2022/01/06 09:56:19;;;;;;;8.43;3.57;;;;;;;4.66;82.76;100379.59;5013704;28;20210;-56
2022/01/06 09:58:44;;;;;;;9.30;3.57;;;;;;;5.16;79.23;100364.69;5013869;28;20637;-57
2022/01/06 10:01:10;;;;;;;10.40;3.70;;;;;;;6.36;72.58;100372.16;5005323;28;20239;-57
2022/01/06 10:03:41;;;;;;;12.13;3.40;;;;;;;7.41;67.25;100363.41;5018309;28;20175;-57
2022/01/06 10:06:22;;;;;;;14.40;3.67;;;;;;;8.11;62.59;100363.31;5014397;28;20175;-57
2022/01/06 10:08:51;;;;;;;10.13;3.37;;;;;;;8.33;60.19;100365.03;5014118;28;20316;-57
2022/01/06 10:11:19;;;;;;;12.13;3.50;;;;;;;8.02;60.80;100361.97;5006434;28;20291;-57
2022/01/06 10:13:54;;;;;;;10.60;3.80;;;;;;;7.46;63.05;100365.00;5012751;28;20176;-57
2022/01/06 10:16:20;;;;;;;9.83;3.53;;;;;;;7.32;64.65;100371.44;4994064;28;20308;-58
2022/01/06 10:19:14;;;;;;;9.27;3.27;;;;;;;5.65;68.39;100376.91;4994074;28;20218;-57
2022/01/06 10:21:46;;;;;;;13.40;4.10;;;;;;;5.29;73.40;100377.09;4996010;28;20269;-59
2022/01/06 10:24:13;;;;;;;12.17;3.80;;;;;;;4.85;75.73;100364.69;4995509;28;20266;-57
2022/01/06 10:26:51;;;;;;;9.73;3.23;;;;;;;4.69;78.41;100372.72;4993769;28;20189;-57
2022/01/06 10:29:18;;;;;;;11.17;4.40;;;;;;;4.68;77.81;100378.69;4999081;28;20613;-58
2022/01/06 10:31:44;;;;;;;11.50;3.43;;;;;;;4.67;78.76;100379.56;5016445;28;20633;-57
2022/01/06 10:34:09;;;;;;;12.00;3.70;;;;;;;4.51;79.47;100374.03;5015127;28;20180;-57
2022/01/06 10:36:36;;;;;;;12.27;4.50;;;;;;;4.39;80.94;100376.88;5014656;28;20328;-57
2022/01/06 10:39:05;;;;;;;10.67;3.53;;;;;;;4.40;80.66;100380.25;5032910;28;20201;-56
2022/01/06 10:41:32;;;;;;;12.87;3.87;;;;;;;4.50;80.52;100384.25;5016983;28;20232;-57
2022/01/06 10:43:59;;;;;;;12.47;3.70;;;;;;;4.41;80.36;100382.75;5016347;28;20182;-57
2022/01/06 10:46:36;;;;;;;13.10;3.90;;;;;;;4.56;81.01;100384.09;5012766;28;20629;-57
2022/01/06 10:49:21;;;;;;;10.53;3.73;;;;;;;4.50;81.68;100389.34;5004150;28;20187;-57
2022/01/06 10:51:50;;;;;;;12.37;3.00;;;;;;;4.54;82.49;100398.59;4996143;28;20257;-57
2022/01/06 10:54:17;;;;;;;7.77;3.03;;;;;;;4.70;83.73;100396.47;4994618;28;20214;-58
2022/01/06 10:56:43;;;;;;;11.00;3.17;;;;;;;4.98;82.81;100390.69;4993224;28;20633;-57
2022/01/06 10:59:09;;;;;;;14.52;4.10;;;;;;;5.46;78.89;100397.84;4992025;28;20427;-58
2022/01/06 11:01:35;;;;;;;9.33;3.43;;;;;;;5.12;80.02;100396.25;5001495;28;20551;-58
2022/01/06 11:04:01;;;;;;;10.70;3.47;;;;;;;4.80;80.85;100391.97;5023410;28;20193;-57
2022/01/06 11:06:28;;;;;;;9.93;2.90;;;;;;;4.64;82.13;100397.47;5029159;28;20167;-57
2022/01/06 11:08:54;;;;;;;9.47;3.20;;;;;;;4.68;82.25;100393.97;5032196;28;20666;-58
2022/01/06 11:11:44;;;;;;;14.07;3.50;;;;;;;4.48;81.60;100399.56;5021250;28;20703;-57
2022/01/06 11:14:15;;;;;;;10.53;3.23;;;;;;;4.74;82.01;100389.59;5014213;28;20210;-58
2022/01/06 11:16:41;;;;;;;17.27;3.93;;;;;;;4.67;81.30;100388.94;5012544;28;20207;-57
2022/01/06 11:19:09;;;;;;;14.03;3.20;;;;;;;4.55;81.12;100391.78;5010904;28;20593;-57
2022/01/06 11:21:40;;;;;;;13.03;3.10;;;;;;;4.47;82.19;100384.34;4997345;28;20374;-57
2022/01/06 11:24:14;;;;;;;15.43;3.97;;;;;;;4.46;82.92;100386.03;5001313;28;20190;-57
2022/01/06 11:26:42;;;;;;;11.27;3.50;;;;;;;4.43;82.16;100385.25;5011200;28;20178;-57
2022/01/06 11:29:08;;;;;;;8.10;2.83;;;;;;;4.40;81.98;100386.19;5000017;28;20230;-57